createdAt,value
2018-03-27T00:01:47.220Z,29.86
2018-03-27T00:04:15.499Z,28.24
2018-03-27T00:06:43.777Z,31.56
2018-03-27T00:09:12.065Z,30.38
2018-03-27T00:11:57.143Z,29.06
2018-03-27T00:14:25.406Z,26.86
2018-03-27T00:16:53.699Z,30.12
2018-03-27T00:19:21.954Z,31.12
2018-03-27T00:21:50.255Z,30.82
2018-03-27T00:24:19.465Z,30.82
2018-03-27T00:26:59.796Z,29.10
2018-03-27T00:29:39.772Z,34.22
2018-03-27T00:32:23.830Z,27.34
2018-03-27T00:35:03.877Z,34.10
2018-03-27T00:37:45.950Z,31.82
2018-03-27T00:40:28.087Z,37.88
2018-03-27T00:42:56.388Z,37.84
2018-03-27T00:45:24.637Z,30.62
2018-03-27T00:47:52.909Z,32.18
2018-03-27T00:50:23.207Z,37.12
2018-03-27T00:52:51.454Z,33.10
2018-03-27T00:55:20.722Z,31.34
2018-03-27T00:57:48.969Z,30.96
2018-03-27T01:00:17.253Z,42.64
2018-03-27T01:02:45.497Z,36.70
2018-03-27T01:05:15.785Z,30.18
2018-03-27T01:07:43.309Z,32.32
2018-03-27T01:10:11.557Z,30.10
2018-03-27T01:12:39.834Z,31.06
2018-03-27T01:15:15.279Z,30.18
2018-03-27T01:17:43.547Z,32.80
2018-03-27T01:20:11.806Z,32.64
2018-03-27T01:22:40.085Z,36.76
2018-03-27T01:25:08.345Z,35.94
2018-03-27T01:27:36.631Z,37.36
2018-03-27T01:30:04.918Z,42.80
2018-03-27T01:32:33.185Z,32.52
2018-03-27T01:35:01.629Z,33.00
2018-03-27T01:37:29.917Z,34.98
2018-03-27T01:40:03.281Z,35.44
2018-03-27T01:42:31.550Z,37.88
2018-03-27T01:45:06.220Z,39.14
2018-03-27T01:47:34.526Z,36.32
2018-03-27T01:50:03.723Z,33.50
2018-03-27T01:52:31.999Z,32.92
2018-03-27T01:55:00.283Z,37.40
2018-03-27T01:57:28.529Z,33.58
2018-03-27T01:59:58.809Z,36.32
2018-03-27T02:02:27.054Z,36.10
2018-03-27T02:04:55.329Z,33.54
2018-03-27T02:07:37.953Z,36.88
2018-03-27T02:10:06.238Z,40.38
2018-03-27T02:12:45.841Z,33.40
2018-03-27T02:15:19.788Z,35.42
2018-03-27T02:17:53.838Z,43.20
2018-03-27T02:20:27.874Z,32.74
2018-03-27T02:23:13.855Z,43.42
2018-03-27T02:25:42.142Z,36.40
2018-03-27T02:28:13.558Z,34.04
2018-03-27T02:30:41.819Z,32.32
2018-03-27T02:33:10.101Z,33.20
2018-03-27T02:35:38.358Z,35.04
2018-03-27T02:38:12.886Z,37.30
2018-03-27T02:40:41.174Z,38.24
2018-03-27T02:43:15.087Z,40.92
2018-03-27T02:45:43.371Z,39.30
2018-03-27T02:48:13.568Z,40.86
2018-03-27T02:50:41.850Z,39.40
2018-03-27T02:53:13.664Z,39.30
2018-03-27T02:55:41.963Z,39.94
2018-03-27T02:58:10.222Z,38.20
2018-03-27T03:00:38.512Z,35.16
2018-03-27T03:03:06.078Z,34.14
2018-03-27T03:05:34.331Z,30.92
2018-03-27T03:08:02.628Z,36.92
2018-03-27T03:10:30.886Z,32.72
2018-03-27T03:12:59.162Z,37.00
2018-03-27T03:15:27.414Z,35.92
2018-03-27T03:17:57.633Z,34.38
2018-03-27T03:20:25.890Z,37.66
2018-03-27T03:22:54.137Z,36.14
2018-03-27T03:25:22.422Z,38.62
2018-03-27T03:27:50.701Z,40.50
2018-03-27T03:30:18.963Z,34.84
2018-03-27T03:32:47.242Z,35.10
2018-03-27T03:35:14.765Z,41.80
2018-03-27T03:37:43.014Z,38.00
2018-03-27T03:40:11.297Z,38.26
2018-03-27T03:42:47.651Z,37.28
2018-03-27T03:45:15.930Z,44.16
2018-03-27T03:47:50.157Z,36.56
2018-03-27T03:50:19.498Z,41.06
2018-03-27T03:52:49.765Z,34.06
2018-03-27T03:55:18.725Z,34.38
2018-03-27T03:57:47.001Z,34.28
2018-03-27T04:00:15.274Z,38.90
2018-03-27T04:02:42.767Z,36.44
2018-03-27T04:05:11.047Z,39.90
2018-03-27T04:07:39.338Z,38.38
2018-03-27T04:10:07.590Z,44.56
2018-03-27T04:12:35.074Z,43.54
2018-03-27T04:15:03.350Z,36.58
2018-03-27T04:17:30.862Z,39.06
2018-03-27T04:19:59.110Z,33.68
2018-03-27T04:22:27.394Z,33.66
2018-03-27T04:24:55.650Z,39.82
2018-03-27T04:27:23.911Z,31.64
2018-03-27T04:29:52.169Z,34.80
2018-03-27T04:32:20.430Z,36.40
2018-03-27T04:34:48.663Z,33.80
2018-03-27T04:37:16.925Z,33.10
2018-03-27T04:39:45.201Z,38.32
2018-03-27T04:42:13.454Z,36.24
2018-03-27T04:44:41.739Z,32.62
2018-03-27T04:47:09.998Z,34.72
2018-03-27T04:49:38.307Z,38.24
2018-03-27T04:52:06.561Z,38.38
2018-03-27T04:54:34.810Z,40.92
2018-03-27T04:57:03.107Z,40.34
2018-03-27T04:59:31.348Z,37.08
2018-03-27T05:01:59.631Z,34.40
2018-03-27T05:04:27.916Z,38.02
2018-03-27T05:06:56.169Z,32.66
2018-03-27T05:09:24.450Z,35.36
2018-03-27T05:11:52.746Z,35.46
2018-03-27T05:14:21.004Z,41.40
2018-03-27T05:16:50.498Z,33.56
2018-03-27T05:19:19.605Z,36.24
2018-03-27T05:21:48.719Z,42.18
2018-03-27T05:24:17.004Z,39.26
2018-03-27T05:26:45.261Z,42.00
2018-03-27T05:29:13.537Z,40.48
2018-03-27T05:31:41.826Z,48.92
2018-03-27T05:34:10.079Z,42.18
2018-03-27T05:36:38.362Z,42.00
2018-03-27T05:39:06.817Z,37.06
2018-03-27T05:41:35.075Z,41.34
2018-03-27T05:44:02.564Z,32.36
2018-03-27T05:46:30.841Z,35.82
2018-03-27T05:48:59.091Z,40.90
2018-03-27T05:51:27.381Z,39.64
2018-03-27T05:53:55.626Z,39.88
2018-03-27T05:56:23.882Z,41.38
2018-03-27T05:58:52.168Z,38.70
2018-03-27T06:01:20.438Z,42.54
2018-03-27T06:03:49.735Z,41.16
2018-03-27T06:06:18.676Z,39.26
2018-03-27T06:08:46.967Z,42.82
2018-03-27T06:11:15.242Z,41.90
2018-03-27T06:13:43.546Z,42.52
2018-03-27T06:16:11.800Z,45.20
2018-03-27T06:18:40.087Z,49.46
2018-03-27T06:21:08.351Z,45.22
2018-03-27T06:23:36.597Z,40.80
2018-03-27T06:26:04.892Z,51.38
2018-03-27T06:28:33.145Z,40.88
2018-03-27T06:31:01.426Z,46.50
2018-03-27T06:33:29.683Z,38.04
2018-03-27T06:35:57.973Z,40.20
2018-03-27T06:38:26.241Z,39.40
2018-03-27T06:40:54.499Z,41.66
2018-03-27T06:43:22.783Z,37.58
2018-03-27T06:45:50.270Z,39.46
2018-03-27T06:48:19.876Z,41.08
2018-03-27T06:50:48.126Z,45.56
2018-03-27T06:53:16.415Z,44.24
2018-03-27T06:55:44.703Z,49.40
2018-03-27T06:58:12.959Z,44.94
2018-03-27T07:00:41.223Z,50.20
2018-03-27T07:03:09.529Z,45.68
2018-03-27T07:05:37.874Z,41.28
2018-03-27T07:08:05.309Z,48.38
2018-03-27T07:10:33.657Z,57.54
2018-03-27T07:13:01.897Z,45.52
2018-03-27T07:15:30.158Z,48.48
2018-03-27T07:17:58.448Z,46.56
2018-03-27T07:20:26.703Z,49.92
2018-03-27T07:22:54.955Z,50.70
2018-03-27T07:25:23.239Z,48.08
2018-03-27T07:27:51.486Z,53.84
2018-03-27T07:30:20.917Z,51.44
2018-03-27T07:32:50.430Z,55.14
2018-03-27T07:35:19.691Z,42.76
2018-03-27T07:37:48.650Z,53.14
2018-03-27T07:40:16.906Z,48.38
2018-03-27T07:42:45.177Z,47.98
2018-03-27T07:45:13.426Z,53.60
2018-03-27T07:47:41.706Z,46.76
2018-03-27T07:50:09.986Z,48.18
2018-03-27T07:52:38.270Z,47.68
2018-03-27T07:55:06.518Z,50.12
2018-03-27T07:57:34.767Z,52.94
2018-03-27T08:00:03.038Z,47.74
2018-03-27T08:02:31.322Z,42.36
2018-03-27T08:04:59.582Z,42.64
2018-03-27T08:07:27.870Z,42.82
2018-03-27T08:09:56.117Z,49.70
2018-03-27T08:12:24.398Z,46.22
2018-03-27T08:14:52.642Z,44.02
2018-03-27T08:17:20.930Z,44.66
2018-03-27T08:19:50.083Z,40.78
2018-03-27T08:22:17.593Z,39.60
2018-03-27T08:24:45.869Z,47.38
2018-03-27T08:27:14.120Z,45.66
2018-03-27T08:29:42.441Z,47.80
2018-03-27T08:32:10.662Z,38.30
2018-03-27T08:34:38.963Z,47.90
2018-03-27T08:37:07.219Z,35.34
2018-03-27T08:39:35.465Z,45.36
2018-03-27T08:42:03.758Z,39.86
2018-03-27T08:44:32.010Z,40.84
2018-03-27T08:47:00.263Z,36.64
2018-03-27T08:49:28.543Z,46.08
2018-03-27T08:51:56.794Z,39.72
2018-03-27T08:54:25.089Z,35.62
2018-03-27T08:56:53.339Z,42.68
2018-03-27T08:59:21.629Z,31.86
2018-03-27T09:01:51.025Z,30.56
2018-03-27T09:04:20.507Z,26.58
2018-03-27T09:06:49.827Z,31.90
2018-03-27T09:09:18.070Z,30.64
2018-03-27T09:11:45.588Z,32.48
2018-03-27T09:14:13.882Z,27.74
2018-03-27T09:16:42.166Z,26.66
2018-03-27T09:19:10.417Z,26.96
2018-03-27T09:21:38.710Z,30.74
2018-03-27T09:24:06.966Z,26.74
2018-03-27T09:26:35.221Z,24.00
2018-03-27T09:29:03.514Z,26.42
2018-03-27T09:31:31.829Z,27.02
2018-03-27T09:34:00.123Z,25.24
2018-03-27T09:36:28.388Z,26.18
2018-03-27T09:38:56.677Z,21.72
2018-03-27T09:41:24.930Z,22.24
2018-03-27T09:43:53.223Z,21.56
2018-03-27T09:46:21.475Z,21.56
2018-03-27T09:48:50.921Z,20.22
2018-03-27T09:51:20.625Z,19.80
2018-03-27T09:53:48.914Z,18.38
2018-03-27T09:56:17.170Z,17.64
2018-03-27T09:58:45.466Z,19.22
2018-03-27T10:01:13.715Z,25.48
2018-03-27T10:03:41.982Z,23.80
2018-03-27T10:06:10.260Z,19.22
2018-03-27T10:08:38.506Z,22.08
2018-03-27T10:11:06.782Z,19.40
2018-03-27T10:13:35.030Z,23.02
2018-03-27T10:16:03.301Z,21.62
2018-03-27T10:18:31.591Z,18.12
2018-03-27T10:20:59.874Z,25.38
2018-03-27T10:23:28.155Z,18.04
2018-03-27T10:25:56.438Z,20.34
2018-03-27T10:28:24.735Z,23.48
2018-03-27T10:30:52.981Z,19.76
2018-03-27T10:33:21.228Z,24.82
2018-03-27T10:35:50.101Z,19.66
2018-03-27T10:38:19.004Z,20.12
2018-03-27T10:40:47.249Z,24.88
2018-03-27T10:43:15.534Z,27.64
2018-03-27T10:45:43.826Z,24.86
2018-03-27T10:48:12.109Z,18.16
2018-03-27T10:50:40.385Z,15.18
2018-03-27T10:53:08.638Z,20.44
2018-03-27T10:55:36.953Z,14.32
2018-03-27T10:58:05.209Z,24.22
2018-03-27T11:00:33.467Z,21.46
2018-03-27T11:03:01.763Z,17.58
2018-03-27T11:05:30.025Z,25.90
2018-03-27T11:07:58.288Z,16.30
2018-03-27T11:10:26.581Z,16.24
2018-03-27T11:12:54.863Z,17.58
2018-03-27T11:15:24.049Z,15.46
2018-03-27T11:17:52.315Z,16.96
2018-03-27T11:20:20.590Z,13.72
2018-03-27T11:22:49.342Z,19.84
2018-03-27T11:25:17.637Z,16.02
2018-03-27T11:27:45.898Z,16.42
2018-03-27T11:30:14.182Z,13.30
2018-03-27T11:32:42.472Z,19.76
2018-03-27T11:35:10.728Z,13.90
2018-03-27T11:37:39.010Z,15.88
2018-03-27T11:40:07.263Z,13.62
2018-03-27T11:42:35.548Z,13.54
2018-03-27T11:45:03.829Z,13.80
2018-03-27T11:47:32.116Z,15.94
2018-03-27T11:50:00.398Z,18.00
2018-03-27T11:52:28.690Z,18.14
2018-03-27T11:54:56.945Z,17.80
2018-03-27T11:57:25.198Z,18.22
2018-03-27T11:59:53.498Z,21.14
2018-03-27T12:02:21.786Z,18.34
2018-03-27T12:04:50.409Z,24.40
2018-03-27T12:07:18.633Z,21.76
2018-03-27T12:09:46.895Z,20.92
2018-03-27T12:12:15.198Z,20.12
2018-03-27T12:14:43.454Z,22.58
2018-03-27T12:17:11.725Z,22.98
2018-03-27T12:19:40.011Z,24.38
2018-03-27T12:22:08.267Z,22.22
2018-03-27T12:24:36.561Z,16.74
2018-03-27T12:27:04.841Z,20.00
2018-03-27T12:29:33.090Z,19.26
2018-03-27T12:32:01.375Z,18.08
2018-03-27T12:34:29.630Z,18.93
2018-03-27T12:36:58.054Z,18.34
2018-03-27T12:39:26.266Z,20.48
2018-03-27T12:41:53.751Z,17.42
2018-03-27T12:44:21.269Z,19.46
2018-03-27T12:46:50.312Z,20.80
2018-03-27T12:49:19.569Z,17.06
2018-03-27T12:51:49.030Z,20.16
2018-03-27T12:54:17.323Z,20.42
2018-03-27T12:56:45.579Z,18.86
2018-03-27T12:59:13.870Z,19.02
2018-03-27T13:01:42.142Z,21.20
2018-03-27T13:04:10.385Z,20.58
2018-03-27T13:06:38.674Z,23.12
2018-03-27T13:09:06.935Z,19.26
2018-03-27T13:11:35.234Z,20.50
2018-03-27T13:14:03.487Z,25.12
2018-03-27T13:16:31.771Z,20.58
2018-03-27T13:19:00.025Z,26.28
2018-03-27T13:21:28.320Z,25.04
2018-03-27T13:23:56.574Z,22.58
2018-03-27T13:26:24.825Z,23.08
2018-03-27T13:28:53.123Z,23.44
2018-03-27T13:31:21.382Z,29.58
2018-03-27T13:33:50.370Z,32.66
2018-03-27T13:36:19.555Z,23.20
2018-03-27T13:38:48.550Z,23.86
2018-03-27T13:41:16.797Z,29.94
2018-03-27T13:43:45.082Z,26.86
2018-03-27T13:46:13.362Z,29.60
2018-03-27T13:48:41.618Z,22.08
2018-03-27T13:51:09.902Z,29.54
2018-03-27T13:53:38.155Z,25.34
2018-03-27T13:56:06.438Z,26.94
2018-03-27T13:58:34.702Z,27.18
2018-03-27T14:01:02.998Z,25.64
2018-03-27T14:03:31.275Z,23.96
2018-03-27T14:05:59.562Z,23.84
2018-03-27T14:08:28.753Z,21.98
2018-03-27T14:10:57.041Z,26.50
2018-03-27T14:13:25.298Z,24.04
2018-03-27T14:15:53.581Z,26.86
2018-03-27T14:18:21.839Z,30.66
2018-03-27T14:20:50.489Z,27.04
2018-03-27T14:23:18.544Z,23.24
2018-03-27T14:25:46.843Z,30.44
2018-03-27T14:28:15.095Z,26.40
2018-03-27T14:30:43.387Z,30.22
2018-03-27T14:33:11.647Z,33.68
2018-03-27T14:35:39.935Z,29.54
2018-03-27T14:38:08.189Z,29.10
2018-03-27T14:40:36.490Z,29.20
2018-03-27T14:43:03.969Z,27.60
2018-03-27T14:45:32.244Z,28.38
2018-03-27T14:48:00.532Z,28.84
2018-03-27T14:50:32.127Z,35.62
2018-03-27T14:53:00.417Z,28.94
2018-03-27T14:55:29.642Z,38.68
2018-03-27T14:57:57.927Z,36.52
2018-03-27T15:00:38.209Z,29.16
2018-03-27T15:03:06.497Z,31.50
2018-03-27T15:05:41.366Z,28.58
2018-03-27T15:08:09.654Z,33.74
2018-03-27T15:10:38.851Z,26.88
2018-03-27T15:13:06.333Z,30.82
2018-03-27T15:15:37.831Z,37.76
2018-03-27T15:18:05.326Z,30.24
2018-03-27T15:20:33.621Z,32.36
2018-03-27T15:23:01.866Z,33.20
2018-03-27T15:25:31.056Z,27.94
2018-03-27T15:28:01.019Z,28.22
2018-03-27T15:30:29.942Z,31.60
2018-03-27T15:32:58.198Z,26.50
2018-03-27T15:35:26.482Z,31.44
2018-03-27T15:37:54.737Z,32.14
2018-03-27T15:40:26.914Z,31.92
2018-03-27T15:42:55.166Z,34.58
2018-03-27T15:45:31.619Z,32.48
2018-03-27T15:48:00.267Z,29.32
2018-03-27T15:50:47.927Z,29.62
2018-03-27T15:53:16.173Z,31.72
2018-03-27T15:55:44.461Z,35.32
2018-03-27T15:58:12.713Z,31.50
2018-03-27T16:00:40.965Z,31.24
2018-03-27T16:03:09.247Z,31.90
2018-03-27T16:05:42.222Z,30.82
2018-03-27T16:08:10.509Z,35.12
2018-03-27T16:10:42.330Z,35.30
2018-03-27T16:13:10.629Z,34.66
2018-03-27T16:15:42.521Z,32.82
2018-03-27T16:18:10.902Z,31.48
2018-03-27T16:20:39.152Z,32.34
2018-03-27T16:23:07.445Z,38.78
2018-03-27T16:25:35.706Z,28.56
2018-03-27T16:28:03.240Z,36.92
2018-03-27T16:30:31.486Z,30.00
2018-03-27T16:33:00.342Z,30.50
2018-03-27T16:35:31.421Z,33.52
2018-03-27T16:38:00.329Z,35.54
2018-03-27T16:40:28.602Z,33.70
2018-03-27T16:42:56.869Z,31.74
2018-03-27T16:45:26.061Z,32.72
2018-03-27T16:47:54.309Z,35.64
2018-03-27T16:50:22.603Z,27.50
2018-03-27T16:52:50.850Z,30.54
2018-03-27T16:55:22.126Z,32.52
2018-03-27T16:57:50.365Z,32.18
2018-03-27T17:00:18.637Z,24.72
2018-03-27T17:02:46.886Z,26.74
2018-03-27T17:05:15.162Z,26.66
2018-03-27T17:07:42.686Z,23.64
2018-03-27T17:10:10.937Z,25.78
2018-03-27T17:12:40.146Z,15.70
2018-03-27T17:15:08.422Z,21.22
2018-03-27T17:17:37.621Z,21.30
2018-03-27T17:20:05.875Z,18.24
2018-03-27T17:22:35.135Z,17.24
2018-03-27T17:25:03.406Z,16.52
2018-03-27T17:27:31.316Z,13.76
2018-03-27T17:30:00.368Z,13.46
2018-03-27T17:32:47.475Z,14.24
2018-03-27T17:35:15.749Z,14.90
2018-03-27T17:37:44.008Z,13.52
2018-03-27T17:40:12.306Z,14.36
2018-03-27T17:42:42.475Z,13.00
2018-03-27T17:45:16.865Z,13.66
2018-03-27T17:47:45.158Z,16.40
2018-03-27T17:50:13.442Z,13.16
2018-03-27T17:52:40.929Z,13.12
2018-03-27T17:55:09.260Z,18.58
2018-03-27T17:57:37.509Z,12.28
2018-03-27T18:00:06.770Z,14.42
2018-03-27T18:02:35.058Z,17.86
2018-03-27T18:05:04.271Z,16.12
2018-03-27T18:07:32.521Z,15.58
2018-03-27T18:10:02.697Z,12.84
2018-03-27T18:12:30.998Z,13.80
2018-03-27T18:15:00.259Z,11.54
2018-03-27T18:17:28.515Z,14.72
2018-03-27T18:19:56.778Z,15.82
2018-03-27T18:22:25.066Z,12.06
2018-03-27T18:24:53.321Z,15.36
2018-03-27T18:27:21.629Z,13.56
2018-03-27T18:29:55.244Z,11.10
2018-03-27T18:32:23.514Z,13.84
2018-03-27T18:34:51.786Z,12.24
2018-03-27T18:37:19.293Z,12.90
2018-03-27T18:39:47.554Z,11.80
2018-03-27T18:42:15.818Z,12.56
2018-03-27T18:44:44.102Z,15.12
2018-03-27T18:47:12.345Z,14.40
2018-03-27T18:49:40.602Z,12.90
2018-03-27T18:52:08.898Z,13.34
2018-03-27T18:54:37.146Z,11.82
2018-03-27T18:57:05.426Z,15.14
2018-03-27T18:59:33.689Z,16.26
2018-03-27T19:02:01.985Z,18.24
2018-03-27T19:04:30.922Z,16.32
2018-03-27T19:07:00.221Z,20.76
2018-03-27T19:09:28.478Z,19.48
2018-03-27T19:11:56.773Z,20.60
2018-03-27T19:14:25.032Z,21.62
2018-03-27T19:16:53.287Z,21.50
2018-03-27T19:19:21.553Z,21.36
2018-03-27T19:21:49.817Z,20.76
2018-03-27T19:24:18.099Z,17.92
2018-03-27T19:26:46.382Z,23.98
2018-03-27T19:29:14.633Z,22.40
2018-03-27T19:31:43.005Z,22.74
2018-03-27T19:34:11.257Z,22.74
2018-03-27T19:36:39.521Z,23.92
2018-03-27T19:39:07.831Z,22.70
2018-03-27T19:41:36.090Z,22.90
2018-03-27T19:44:04.357Z,26.90
2018-03-27T19:46:32.646Z,27.92
2018-03-27T19:49:06.753Z,31.88
2018-03-27T19:51:35.033Z,29.48
2018-03-27T19:54:03.284Z,27.68
2018-03-27T19:59:24.941Z,30.98
2018-03-27T20:01:53.218Z,36.98
2018-03-27T20:04:21.471Z,33.10
2018-03-27T20:06:49.727Z,35.36
2018-03-27T20:09:18.026Z,40.52
2018-03-27T20:11:46.274Z,32.78
2018-03-27T20:14:14.579Z,29.52
2018-03-27T20:16:42.847Z,36.50
2018-03-27T20:19:11.103Z,34.14
2018-03-27T20:21:39.390Z,35.00
2018-03-27T20:24:07.655Z,33.08
2018-03-27T20:26:35.945Z,34.98
2018-03-27T20:29:04.200Z,33.88
2018-03-27T20:31:32.465Z,37.94
2018-03-27T20:34:01.581Z,35.50
2018-03-27T20:36:30.521Z,39.50
2018-03-27T20:38:59.630Z,39.36
2018-03-27T20:41:27.918Z,35.76
2018-03-27T20:43:56.177Z,36.62
2018-03-27T20:46:24.463Z,37.38
2018-03-27T20:48:52.757Z,35.30
2018-03-27T20:51:21.018Z,36.90
2018-03-27T20:53:49.269Z,38.48
2018-03-27T20:56:17.557Z,38.42
2018-03-27T20:58:49.597Z,32.64
2018-03-27T21:01:17.851Z,35.90
2018-03-27T21:03:48.142Z,32.24
2018-03-27T21:06:16.399Z,38.54
2018-03-27T21:08:44.755Z,37.70
2018-03-27T21:11:13.082Z,34.88
2018-03-27T21:13:41.373Z,38.12
2018-03-27T21:16:09.627Z,37.78
2018-03-27T21:18:43.594Z,39.22
2018-03-27T21:21:11.889Z,49.40
2018-03-27T21:23:41.131Z,43.64
2018-03-27T21:26:09.416Z,51.32
2018-03-27T21:28:37.733Z,45.36
2018-03-27T21:31:06.017Z,41.80
2018-03-27T21:33:35.262Z,48.68
2018-03-27T21:36:03.532Z,41.84
2018-03-27T21:38:31.862Z,41.50
2018-03-27T21:41:00.859Z,46.38
2018-03-27T21:43:30.123Z,37.72
2018-03-27T21:45:58.378Z,44.58
2018-03-27T21:48:26.764Z,37.72
2018-03-27T21:50:55.034Z,34.00
2018-03-27T21:53:24.262Z,33.96
2018-03-27T21:55:52.550Z,35.58
2018-03-27T21:58:20.859Z,34.50
2018-03-27T22:00:49.140Z,34.92
2018-03-27T22:03:20.438Z,34.14
2018-03-27T22:05:48.713Z,34.50
2018-03-27T22:08:23.098Z,34.96
2018-03-27T22:10:51.380Z,33.04
2018-03-27T22:13:19.647Z,37.30
2018-03-27T22:15:47.934Z,33.46
2018-03-27T22:18:16.274Z,37.18
2018-03-27T22:20:44.561Z,33.74
2018-03-27T22:23:14.831Z,32.12
2018-03-27T22:25:43.089Z,34.42
2018-03-27T22:28:11.445Z,32.50
2018-03-27T22:30:39.699Z,31.76
2018-03-27T22:33:17.694Z,32.74
2018-03-27T22:35:45.973Z,31.72
2018-03-27T22:38:16.314Z,31.10
2018-03-27T22:40:44.562Z,29.34
2018-03-27T22:43:15.071Z,27.54
2018-03-27T22:45:43.349Z,28.76
2018-03-27T22:48:11.641Z,37.58
2018-03-27T22:50:39.916Z,35.00
2018-03-27T22:53:15.101Z,34.98
2018-03-27T22:55:43.350Z,27.82
2018-03-27T22:58:11.634Z,30.38
2018-03-27T23:00:39.909Z,29.92
2018-03-27T23:03:08.185Z,26.80
2018-03-27T23:05:36.440Z,27.04
2018-03-27T23:08:04.719Z,31.18
2018-03-27T23:10:33.050Z,28.26
2018-03-27T23:13:01.313Z,28.92
2018-03-27T23:15:30.907Z,28.08
2018-03-27T23:18:00.627Z,32.18
2018-03-27T23:20:32.342Z,31.44
2018-03-27T23:23:01.903Z,28.88
2018-03-27T23:25:31.527Z,27.94
2018-03-27T23:28:00.750Z,34.16
2018-03-27T23:30:29.059Z,32.80
2018-03-27T23:32:57.337Z,32.30
2018-03-27T23:35:25.586Z,36.12
2018-03-27T23:37:56.942Z,33.70
2018-03-27T23:40:25.204Z,36.66
2018-03-27T23:42:53.484Z,29.98
2018-03-27T23:45:21.734Z,31.44
2018-03-27T23:47:50.062Z,30.54
2018-03-27T23:50:18.319Z,32.04
2018-03-27T23:52:47.547Z,31.80
2018-03-27T23:55:15.826Z,28.84
2018-03-27T23:57:47.757Z,36.04
